الصفحة الرئيسية
METAR-TAF:

METAR-TAF

مطار :

دمشق, سوريا

مطار دمشق الدولي

دائرة عرض: 33-25N, خط طول: 036-31E, ارتفاع: 608 متر

مراقبة الطقس الحالي

تاريخ ووقت الإصدار 1ساعة و 4 دقيقة قبل الساعة 02:00UTC
ريح 18 عقدة من الغرب/الجنوب الغربي
درجة الحرارة 13°درجة مئوية
الرطوبة 82%
ضغط 1008 hPa
الرؤية 10 كم أو أكثر
الغيوم لا تقل 1500 م ولا وجود لمزنة ركامية السحاب الأسود

METAR: OSDI 220200Z 24018KT CAVOK 13/10 Q1008

زمن: 06:04 (03:04 UTC)

توقعات

التوقعات صالحة من21 الساعة 18 UTC إلى 22 الساعة 24 UTC
ريح 10 عقدة من الجنوب الغربي تتزايد حتى 20 عقدة
الرؤية 10 كم أو أكثر
غيوم قليلة على ارتفاع 3000 قدم
مؤقت
من 22 الساعة 12 UTC إلى 22 الساعة 18 UTC
ريح 15 عقدة من الغرب/الجنوب الغربي تتزايد حتى 25 عقدة

TAF: OSDI 2118/2224 22010G20KT 9999 FEW030 TEMPO 2212/2218 24015G25KT

أرصاد الطقس والتوقعات من أكثر من 4000 مطار (تقارير الطقس للمطار METAR والتنبؤ بالطقس بالمطارTAF).

المحطات المتاحة هي النقط الصفراء والحمراء على الخريطة.

حرك المؤشر فوق النقطة لمعرفة اسم المحطة.

ثم انقر لمعرفة أرصاد وتوقعات الطقس.

لتغيير الخارطة: اضغط على الأزرار الخضراء مع رمز الصليب الأسود للتكبير. على الزر الأخضر مع شرطة للتصغير، أو على الأسهم الخضراء للخرائط المجاورة.


METAR-TAF: